sensor_id;sensor_type;location;lat;lon;timestamp;pressure;altitude;pressure_sealevel;temperature;humidity
27014;BME280;14556;52.222;4.510;2023-06-10T16:02:01;100632.31;;;28.33;34.02
27014;BME280;14556;52.222;4.510;2023-06-10T16:04:29;100623.75;;;28.17;34.34
27014;BME280;14556;52.222;4.510;2023-06-10T16:06:56;100626.00;;;27.97;34.29
27014;BME280;14556;52.222;4.510;2023-06-10T16:09:23;100618.38;;;27.58;34.38
27014;BME280;14556;52.222;4.510;2023-06-10T16:11:50;100634.34;;;27.47;34.99
27014;BME280;14556;52.222;4.510;2023-06-10T16:14:16;100623.63;;;27.19;35.25
27014;BME280;14556;52.222;4.510;2023-06-10T16:16:43;100627.19;;;27.20;35.21
27014;BME280;14556;52.222;4.510;2023-06-10T16:19:11;100632.53;;;27.25;35.54
27014;BME280;14556;52.222;4.510;2023-06-10T16:21:38;100610.75;;;26.97;35.16
27014;BME280;14556;52.222;4.510;2023-06-10T16:24:07;100614.19;;;26.71;35.47
27014;BME280;14556;52.222;4.510;2023-06-10T16:26:34;100625.38;;;26.83;36.30
27014;BME280;14556;52.222;4.510;2023-06-10T16:29:01;100614.47;;;27.01;36.38
27014;BME280;14556;52.222;4.510;2023-06-10T16:31:27;100615.84;;;27.12;35.76
27014;BME280;14556;52.222;4.510;2023-06-10T16:33:54;100627.84;;;26.94;35.11
27014;BME280;14556;52.222;4.510;2023-06-10T16:36:20;100611.13;;;26.72;34.78
27014;BME280;14556;52.222;4.510;2023-06-10T16:38:47;100610.81;;;26.74;34.73
27014;BME280;14556;52.222;4.510;2023-06-10T16:41:13;100610.63;;;26.70;35.07
27014;BME280;14556;52.222;4.510;2023-06-10T16:43:40;100620.91;;;26.64;35.08
27014;BME280;14556;52.222;4.510;2023-06-10T16:46:07;100625.38;;;26.51;34.88
27014;BME280;14556;52.222;4.510;2023-06-10T16:48:33;100622.25;;;26.44;35.14
27014;BME280;14556;52.222;4.510;2023-06-10T16:50:59;100623.50;;;26.38;34.56
27014;BME280;14556;52.222;4.510;2023-06-10T16:53:26;100618.00;;;26.38;35.08
27014;BME280;14556;52.222;4.510;2023-06-10T16:55:53;100616.63;;;26.26;34.36
27014;BME280;14556;52.222;4.510;2023-06-10T16:58:19;100613.06;;;26.26;34.75
27014;BME280;14556;52.222;4.510;2023-06-10T17:00:46;100612.84;;;26.36;34.62
27014;BME280;14556;52.222;4.510;2023-06-10T17:03:13;100612.25;;;26.25;33.77
27014;BME280;14556;52.222;4.510;2023-06-10T17:05:40;100626.91;;;26.20;34.18
27014;BME280;14556;52.222;4.510;2023-06-10T17:08:06;100614.31;;;26.19;34.72
27014;BME280;14556;52.222;4.510;2023-06-10T17:10:33;100608.41;;;26.26;34.60
27014;BME280;14556;52.222;4.510;2023-06-10T17:13:01;100626.50;;;26.13;34.52
27014;BME280;14556;52.222;4.510;2023-06-10T17:15:27;100614.75;;;26.13;34.63
27014;BME280;14556;52.222;4.510;2023-06-10T17:17:54;100627.03;;;26.15;34.25
27014;BME280;14556;52.222;4.510;2023-06-10T17:20:21;100615.78;;;26.03;33.94
27014;BME280;14556;52.222;4.510;2023-06-10T17:22:47;100605.69;;;25.89;34.13
27014;BME280;14556;52.222;4.510;2023-06-10T17:25:14;100621.13;;;25.85;33.69
27014;BME280;14556;52.222;4.510;2023-06-10T17:27:41;100616.47;;;25.86;33.95
27014;BME280;14556;52.222;4.510;2023-06-10T17:30:07;100604.22;;;25.83;33.73
27014;BME280;14556;52.222;4.510;2023-06-10T17:32:34;100615.66;;;25.85;33.82
27014;BME280;14556;52.222;4.510;2023-06-10T17:35:01;100613.03;;;25.80;33.47
27014;BME280;14556;52.222;4.510;2023-06-10T17:38:15;100619.25;;;25.71;33.91
27014;BME280;14556;52.222;4.510;2023-06-10T17:40:43;100618.72;;;25.69;33.51
27014;BME280;14556;52.222;4.510;2023-06-10T17:43:09;100622.59;;;25.68;33.87
27014;BME280;14556;52.222;4.510;2023-06-10T17:45:36;100614.25;;;25.59;33.79
27014;BME280;14556;52.222;4.510;2023-06-10T17:48:03;100612.34;;;25.60;33.97
27014;BME280;14556;52.222;4.510;2023-06-10T17:50:29;100609.00;;;25.49;34.07
27014;BME280;14556;52.222;4.510;2023-06-10T17:52:56;100615.00;;;25.51;34.43
27014;BME280;14556;52.222;4.510;2023-06-10T17:55:22;100618.84;;;25.50;33.83
27014;BME280;14556;52.222;4.510;2023-06-10T17:57:49;100624.41;;;25.45;34.21
27014;BME280;14556;52.222;4.510;2023-06-10T18:00:16;100628.59;;;25.42;33.82
27014;BME280;14556;52.222;4.510;2023-06-10T18:02:42;100623.03;;;25.33;34.07
27014;BME280;14556;52.222;4.510;2023-06-10T18:05:09;100624.44;;;25.31;34.04
27014;BME280;14556;52.222;4.510;2023-06-10T18:07:36;100618.06;;;25.21;33.47
27014;BME280;14556;52.222;4.510;2023-06-10T18:10:03;100628.69;;;25.23;33.61
27014;BME280;14556;52.222;4.510;2023-06-10T18:12:29;100611.34;;;25.14;33.75
27014;BME280;14556;52.222;4.510;2023-06-10T18:14:56;100631.94;;;25.11;33.66
27014;BME280;14556;52.222;4.510;2023-06-10T18:17:23;100629.69;;;25.13;34.05
27014;BME280;14556;52.222;4.510;2023-06-10T18:19:49;100617.34;;;25.02;33.57
27014;BME280;14556;52.222;4.510;2023-06-10T18:22:16;100632.13;;;25.01;33.89
27014;BME280;14556;52.222;4.510;2023-06-10T18:24:42;100630.59;;;24.94;33.85
27014;BME280;14556;52.222;4.510;2023-06-10T18:27:09;100631.28;;;24.86;33.50
27014;BME280;14556;52.222;4.510;2023-06-10T18:29:39;100629.94;;;24.83;33.80
27014;BME280;14556;52.222;4.510;2023-06-10T18:32:06;100629.06;;;24.88;34.18
27014;BME280;14556;52.222;4.510;2023-06-10T18:34:33;100622.34;;;24.80;34.05
27014;BME280;14556;52.222;4.510;2023-06-10T18:37:02;100629.31;;;24.72;34.19
27014;BME280;14556;52.222;4.510;2023-06-10T18:39:29;100633.16;;;24.71;34.22
27014;BME280;14556;52.222;4.510;2023-06-10T18:41:56;100639.31;;;24.63;34.25
27014;BME280;14556;52.222;4.510;2023-06-10T18:44:22;100632.31;;;24.57;34.50
27014;BME280;14556;52.222;4.510;2023-06-10T18:46:49;100643.25;;;24.57;34.93
27014;BME280;14556;52.222;4.510;2023-06-10T18:49:17;100642.84;;;24.49;34.52
27014;BME280;14556;52.222;4.510;2023-06-10T18:51:43;100644.59;;;24.40;34.60
27014;BME280;14556;52.222;4.510;2023-06-10T18:54:10;100639.00;;;24.31;34.46
27014;BME280;14556;52.222;4.510;2023-06-10T18:56:36;100647.13;;;24.36;35.42
27014;BME280;14556;52.222;4.510;2023-06-10T18:59:03;100639.38;;;24.24;35.21
27014;BME280;14556;52.222;4.510;2023-06-10T19:01:29;100656.38;;;24.21;35.14
27014;BME280;14556;52.222;4.510;2023-06-10T19:03:56;100637.97;;;24.08;35.21
27014;BME280;14556;52.222;4.510;2023-06-10T19:06:23;100657.66;;;24.05;35.63
27014;BME280;14556;52.222;4.510;2023-06-10T19:08:49;100657.16;;;24.02;35.63
27014;BME280;14556;52.222;4.510;2023-06-10T19:11:16;100654.50;;;23.97;35.77
27014;BME280;14556;52.222;4.510;2023-06-10T19:13:43;100660.84;;;23.93;35.76
27014;BME280;14556;52.222;4.510;2023-06-10T19:16:09;100656.63;;;23.81;35.92
27014;BME280;14556;52.222;4.510;2023-06-10T19:18:36;100651.84;;;23.73;35.94
27014;BME280;14556;52.222;4.510;2023-06-10T19:21:02;100663.03;;;23.71;36.12
27014;BME280;14556;52.222;4.510;2023-06-10T19:23:33;100668.56;;;23.66;36.89
27014;BME280;14556;52.222;4.510;2023-06-10T19:26:01;100667.28;;;23.58;36.74
27014;BME280;14556;52.222;4.510;2023-06-10T19:28:29;100660.13;;;23.43;36.71
27014;BME280;14556;52.222;4.510;2023-06-10T19:30:56;100666.38;;;23.43;37.40
27014;BME280;14556;52.222;4.510;2023-06-10T19:33:25;100680.56;;;23.40;37.02
27014;BME280;14556;52.222;4.510;2023-06-10T19:35:55;100670.63;;;23.25;37.21
27014;BME280;14556;52.222;4.510;2023-06-10T19:38:22;100678.06;;;23.19;37.37
27014;BME280;14556;52.222;4.510;2023-06-10T19:40:48;100680.84;;;23.14;38.14
27014;BME280;14556;52.222;4.510;2023-06-10T19:43:15;100685.53;;;23.09;37.54
27014;BME280;14556;52.222;4.510;2023-06-10T19:45:42;100686.16;;;23.00;38.25
27014;BME280;14556;52.222;4.510;2023-06-10T19:48:08;100685.66;;;22.93;38.29
27014;BME280;14556;52.222;4.510;2023-06-10T19:50:37;100681.41;;;22.81;38.76
27014;BME280;14556;52.222;4.510;2023-06-10T19:53:03;100686.38;;;22.74;38.43
27014;BME280;14556;52.222;4.510;2023-06-10T19:55:30;100692.13;;;22.73;38.40
27014;BME280;14556;52.222;4.510;2023-06-10T19:57:56;100688.38;;;22.63;38.84
27014;BME280;14556;52.222;4.510;2023-06-10T20:00:23;100699.81;;;22.60;38.89
27014;BME280;14556;52.222;4.510;2023-06-10T20:02:50;100698.50;;;22.52;38.99
27014;BME280;14556;52.222;4.510;2023-06-10T20:05:16;100701.84;;;22.44;39.56
27014;BME280;14556;52.222;4.510;2023-06-10T20:07:43;100701.31;;;22.37;39.91
27014;BME280;14556;52.222;4.510;2023-06-10T20:10:09;100707.88;;;22.36;39.70
27014;BME280;14556;52.222;4.510;2023-06-10T20:12:38;100702.78;;;22.24;39.75
27014;BME280;14556;52.222;4.510;2023-06-10T20:15:05;100711.53;;;22.20;40.26
27014;BME280;14556;52.222;4.510;2023-06-10T20:17:35;100717.03;;;22.10;40.24
27014;BME280;14556;52.222;4.510;2023-06-10T20:20:02;100714.06;;;22.06;40.52
27014;BME280;14556;52.222;4.510;2023-06-10T20:22:30;100720.59;;;22.00;40.85
27014;BME280;14556;52.222;4.510;2023-06-10T20:24:56;100709.78;;;21.84;41.06
27014;BME280;14556;52.222;4.510;2023-06-10T20:27:26;100720.66;;;21.90;41.22
27014;BME280;14556;52.222;4.510;2023-06-10T20:29:52;100722.31;;;21.80;41.59
27014;BME280;14556;52.222;4.510;2023-06-10T20:32:22;100705.75;;;21.66;41.84
27014;BME280;14556;52.222;4.510;2023-06-10T20:34:51;100725.31;;;21.68;42.22
27014;BME280;14556;52.222;4.510;2023-06-10T20:37:18;100716.41;;;21.52;42.76
27014;BME280;14556;52.222;4.510;2023-06-10T20:39:44;100724.81;;;21.50;43.24
27014;BME280;14556;52.222;4.510;2023-06-10T20:42:11;100728.09;;;21.47;43.28
27014;BME280;14556;52.222;4.510;2023-06-10T20:44:42;100730.03;;;21.42;43.72
27014;BME280;14556;52.222;4.510;2023-06-10T20:47:12;100732.50;;;21.33;44.28
27014;BME280;14556;52.222;4.510;2023-06-10T20:49:41;100742.00;;;21.25;45.02
27014;BME280;14556;52.222;4.510;2023-06-10T20:52:10;100728.41;;;21.14;45.50
27014;BME280;14556;52.222;4.510;2023-06-10T20:54:37;100744.19;;;21.12;46.27
27014;BME280;14556;52.222;4.510;2023-06-10T20:57:09;100734.41;;;21.01;46.70
27014;BME280;14556;52.222;4.510;2023-06-10T20:59:36;100753.16;;;21.02;47.21
27014;BME280;14556;52.222;4.510;2023-06-10T21:02:02;100752.34;;;20.97;48.53
27014;BME280;14556;52.222;4.510;2023-06-10T21:04:29;100739.81;;;20.80;49.03
27014;BME280;14556;52.222;4.510;2023-06-10T21:06:55;100755.56;;;20.83;50.06
27014;BME280;14556;52.222;4.510;2023-06-10T21:09:22;100752.03;;;20.77;50.85
27014;BME280;14556;52.222;4.510;2023-06-10T21:11:48;100759.34;;;20.72;51.63
27014;BME280;14556;52.222;4.510;2023-06-10T21:14:21;100765.88;;;20.65;53.01
27014;BME280;14556;52.222;4.510;2023-06-10T21:16:47;100767.50;;;20.61;54.16
27014;BME280;14556;52.222;4.510;2023-06-10T21:19:17;100771.31;;;20.60;55.17
27014;BME280;14556;52.222;4.510;2023-06-10T21:21:43;100776.97;;;20.48;56.31
27014;BME280;14556;52.222;4.510;2023-06-10T21:24:10;100775.06;;;20.44;57.81
27014;BME280;14556;52.222;4.510;2023-06-10T21:26:40;100780.75;;;20.42;59.41
27014;BME280;14556;52.222;4.510;2023-06-10T21:29:07;100783.19;;;20.38;61.20
27014;BME280;14556;52.222;4.510;2023-06-10T21:31:34;100785.06;;;20.27;63.54
27014;BME280;14556;52.222;4.510;2023-06-10T21:34:01;100786.94;;;20.22;66.04
27014;BME280;14556;52.222;4.510;2023-06-10T21:36:27;100784.47;;;20.15;68.08
27014;BME280;14556;52.222;4.510;2023-06-10T21:38:54;100790.16;;;20.13;71.86
27014;BME280;14556;52.222;4.510;2023-06-10T21:41:20;100796.13;;;20.10;75.98
27014;BME280;14556;52.222;4.510;2023-06-10T21:43:48;100796.91;;;20.05;82.81
27014;BME280;14556;52.222;4.510;2023-06-10T21:46:14;100793.59;;;19.98;90.36
27014;BME280;14556;52.222;4.510;2023-06-10T21:48:43;100792.53;;;19.99;98.82
27014;BME280;14556;52.222;4.510;2023-06-10T21:51:09;100795.22;;;19.94;100.00
27014;BME280;14556;52.222;4.510;2023-06-10T21:53:39;100801.97;;;19.91;100.00
27014;BME280;14556;52.222;4.510;2023-06-10T21:56:05;100798.66;;;19.84;100.00
27014;BME280;14556;52.222;4.510;2023-06-10T21:58:32;100799.19;;;19.81;100.00
27014;BME280;14556;52.222;4.510;2023-06-10T22:00:58;100802.44;;;19.78;100.00
27014;BME280;14556;52.222;4.510;2023-06-10T22:03:25;100791.56;;;19.73;100.00
27014;BME280;14556;52.222;4.510;2023-06-10T22:05:52;100789.34;;;19.64;100.00
27014;BME280;14556;52.222;4.510;2023-06-10T22:08:18;100794.22;;;19.67;100.00
27014;BME280;14556;52.222;4.510;2023-06-10T22:10:45;100798.84;;;19.67;100.00
27014;BME280;14556;52.222;4.510;2023-06-10T22:13:11;100793.13;;;19.63;100.00
27014;BME280;14556;52.222;4.510;2023-06-10T22:15:38;100797.44;;;19.59;100.00
27014;BME280;14556;52.222;4.510;2023-06-10T22:18:05;100802.88;;;19.59;100.00
27014;BME280;14556;52.222;4.510;2023-06-10T22:20:35;100798.50;;;19.58;100.00
27014;BME280;14556;52.222;4.510;2023-06-10T22:23:03;100794.41;;;19.50;100.00
27014;BME280;14556;52.222;4.510;2023-06-10T22:25:29;100806.06;;;19.51;100.00
27014;BME280;14556;52.222;4.510;2023-06-10T22:27:56;100795.47;;;19.49;100.00
27014;BME280;14556;52.222;4.510;2023-06-10T22:30:23;100796.50;;;19.43;100.00
27014;BME280;14556;52.222;4.510;2023-06-10T22:32:49;100794.59;;;19.38;100.00
27014;BME280;14556;52.222;4.510;2023-06-10T22:35:18;100786.69;;;19.31;100.00
27014;BME280;14556;52.222;4.510;2023-06-10T22:37:44;100794.81;;;19.31;100.00
27014;BME280;14556;52.222;4.510;2023-06-10T22:40:14;100798.88;;;19.34;100.00
27014;BME280;14556;52.222;4.510;2023-06-10T22:42:40;100797.56;;;19.37;100.00
27014;BME280;14556;52.222;4.510;2023-06-10T22:45:07;100785.59;;;19.32;100.00
27014;BME280;14556;52.222;4.510;2023-06-10T22:47:34;100798.88;;;19.34;100.00
27014;BME280;14556;52.222;4.510;2023-06-10T22:50:01;100791.78;;;19.28;100.00
27014;BME280;14556;52.222;4.510;2023-06-10T22:52:27;100779.53;;;19.20;100.00
27014;BME280;14556;52.222;4.510;2023-06-10T22:54:54;100791.75;;;19.23;100.00
27014;BME280;14556;52.222;4.510;2023-06-10T22:57:21;100799.06;;;19.22;100.00
27014;BME280;14556;52.222;4.510;2023-06-10T22:59:50;100799.31;;;19.20;100.00
27014;BME280;14556;52.222;4.510;2023-06-10T23:02:17;100782.44;;;19.13;100.00
27014;BME280;14556;52.222;4.510;2023-06-10T23:04:44;100790.88;;;19.17;100.00
27014;BME280;14556;52.222;4.510;2023-06-10T23:07:10;100790.31;;;19.15;100.00
27014;BME280;14556;52.222;4.510;2023-06-10T23:09:40;100775.03;;;19.03;100.00
27014;BME280;14556;52.222;4.510;2023-06-10T23:12:06;100778.28;;;19.05;100.00
27014;BME280;14556;52.222;4.510;2023-06-10T23:14:33;100788.88;;;19.07;100.00
27014;BME280;14556;52.222;4.510;2023-06-10T23:16:59;100796.72;;;19.03;100.00
27014;BME280;14556;52.222;4.510;2023-06-10T23:19:26;100782.53;;;18.96;100.00
27014;BME280;14556;52.222;4.510;2023-06-10T23:21:55;100792.56;;;18.95;100.00
27014;BME280;14556;52.222;4.510;2023-06-10T23:24:23;100787.66;;;18.92;100.00
27014;BME280;14556;52.222;4.510;2023-06-10T23:26:57;100794.13;;;18.91;100.00
27014;BME280;14556;52.222;4.510;2023-06-10T23:29:24;100787.91;;;18.91;100.00
27014;BME280;14556;52.222;4.510;2023-06-10T23:31:52;100785.72;;;18.88;100.00
27014;BME280;14556;52.222;4.510;2023-06-10T23:34:19;100788.91;;;18.84;100.00
27014;BME280;14556;52.222;4.510;2023-06-10T23:36:46;100770.38;;;18.71;100.00
27014;BME280;14556;52.222;4.510;2023-06-10T23:39:14;100790.53;;;18.80;100.00
27014;BME280;14556;52.222;4.510;2023-06-10T23:41:41;100787.00;;;18.80;100.00
27014;BME280;14556;52.222;4.510;2023-06-10T23:44:09;100784.53;;;18.78;100.00
27014;BME280;14556;52.222;4.510;2023-06-10T23:46:37;100782.66;;;18.79;100.00
27014;BME280;14556;52.222;4.510;2023-06-10T23:49:04;100783.47;;;18.79;100.00
27014;BME280;14556;52.222;4.510;2023-06-10T23:51:32;100780.22;;;18.77;100.00
27014;BME280;14556;52.222;4.510;2023-06-10T23:54:00;100778.28;;;18.78;100.00
27014;BME280;14556;52.222;4.510;2023-06-10T23:56:26;100775.78;;;18.71;100.00
27014;BME280;14556;52.222;4.510;2023-06-10T23:58:53;100778.56;;;18.76;100.00
